sensor_id;sensor_type;location;lat;lon;timestamp;pressure;altitude;pressure_sealevel;temperature;humidity
54592;BME280;40488;48.558;18.150;2023-11-21T00:00:34;99046.66;;;5.69;95.19
54592;BME280;40488;48.558;18.150;2023-11-21T00:03:03;99038.22;;;5.67;94.78
54592;BME280;40488;48.558;18.150;2023-11-21T00:05:32;99038.22;;;5.64;95.20
54592;BME280;40488;48.558;18.150;2023-11-21T00:08:03;99037.31;;;5.59;95.23
54592;BME280;40488;48.558;18.150;2023-11-21T00:10:32;99027.88;;;5.42;95.19
54592;BME280;40488;48.558;18.150;2023-11-21T00:13:01;99041.50;;;5.54;95.22
54592;BME280;40488;48.558;18.150;2023-11-21T00:15:30;99040.63;;;5.53;94.98
54592;BME280;40488;48.558;18.150;2023-11-21T00:18:01;99043.94;;;5.48;95.08
54592;BME280;40488;48.558;18.150;2023-11-21T00:20:30;99041.41;;;5.45;95.11
54592;BME280;40488;48.558;18.150;2023-11-21T00:22:59;99060.81;;;5.47;95.26
54592;BME280;40488;48.558;18.150;2023-11-21T00:25:29;99043.81;;;5.35;95.77
54592;BME280;40488;48.558;18.150;2023-11-21T00:27:59;99057.41;;;5.42;94.80
54592;BME280;40488;48.558;18.150;2023-11-21T00:30:28;99056.50;;;5.38;95.34
54592;BME280;40488;48.558;18.150;2023-11-21T00:32:58;99051.50;;;5.41;94.75
54592;BME280;40488;48.558;18.150;2023-11-21T00:35:29;99038.88;;;5.45;95.43
54592;BME280;40488;48.558;18.150;2023-11-21T00:37:58;99045.66;;;5.49;95.38
54592;BME280;40488;48.558;18.150;2023-11-21T00:40:27;99042.34;;;5.54;95.53
54592;BME280;40488;48.558;18.150;2023-11-21T00:42:56;99036.44;;;5.57;95.37
54592;BME280;40488;48.558;18.150;2023-11-21T00:45:25;99029.69;;;5.56;94.87
54592;BME280;40488;48.558;18.150;2023-11-21T00:47:54;99024.66;;;5.59;95.50
54592;BME280;40488;48.558;18.150;2023-11-21T00:50:23;99033.03;;;5.55;95.31
54592;BME280;40488;48.558;18.150;2023-11-21T00:52:54;99016.97;;;5.48;95.36
54592;BME280;40488;48.558;18.150;2023-11-21T00:55:23;99032.25;;;5.62;95.82
54592;BME280;40488;48.558;18.150;2023-11-21T00:57:52;99032.28;;;5.63;95.63
54592;BME280;40488;48.558;18.150;2023-11-21T01:00:21;99035.69;;;5.65;95.67
54592;BME280;40488;48.558;18.150;2023-11-21T01:02:51;99038.16;;;5.62;95.21
54592;BME280;40488;48.558;18.150;2023-11-21T01:05:20;99039.84;;;5.62;95.77
54592;BME280;40488;48.558;18.150;2023-11-21T01:07:49;99023.00;;;5.61;95.38
54592;BME280;40488;48.558;18.150;2023-11-21T01:10:19;99025.59;;;5.70;95.81
54592;BME280;40488;48.558;18.150;2023-11-21T01:12:48;99025.59;;;5.71;95.71
54592;BME280;40488;48.558;18.150;2023-11-21T01:15:17;99021.34;;;5.69;95.23
54592;BME280;40488;48.558;18.150;2023-11-21T01:17:47;99020.50;;;5.64;95.21
54592;BME280;40488;48.558;18.150;2023-11-21T01:20:16;99028.88;;;5.58;95.42
54592;BME280;40488;48.558;18.150;2023-11-21T01:22:46;99027.97;;;5.52;95.47
54592;BME280;40488;48.558;18.150;2023-11-21T01:25:16;99027.94;;;5.49;95.62
54592;BME280;40488;48.558;18.150;2023-11-21T01:27:47;99026.22;;;5.48;95.59
54592;BME280;40488;48.558;18.150;2023-11-21T01:30:16;99023.69;;;5.45;95.28
54592;BME280;40488;48.558;18.150;2023-11-21T01:32:44;99027.06;;;5.42;95.16
54592;BME280;40488;48.558;18.150;2023-11-21T01:35:14;99017.63;;;5.27;95.00
54592;BME280;40488;48.558;18.150;2023-11-21T01:37:42;99023.50;;;5.26;94.96
54592;BME280;40488;48.558;18.150;2023-11-21T01:40:11;99018.38;;;5.17;95.09
54592;BME280;40488;48.558;18.150;2023-11-21T01:42:43;99028.50;;;5.19;94.97
54592;BME280;40488;48.558;18.150;2023-11-21T01:45:15;99027.63;;;5.15;94.85
54592;BME280;40488;48.558;18.150;2023-11-21T01:47:44;99019.16;;;5.10;94.76
54592;BME280;40488;48.558;18.150;2023-11-21T01:50:16;99029.34;;;5.19;95.37
54592;BME280;40488;48.558;18.150;2023-11-21T01:52:46;99029.38;;;5.22;95.09
54592;BME280;40488;48.558;18.150;2023-11-21T01:55:17;99026.06;;;5.29;95.11
54592;BME280;40488;48.558;18.150;2023-11-21T01:57:56;99022.78;;;5.35;94.86
54592;BME280;40488;48.558;18.150;2023-11-21T02:00:26;99032.09;;;5.43;95.21
54592;BME280;40488;48.558;18.150;2023-11-21T02:02:58;99033.75;;;5.40;94.77
54592;BME280;40488;48.558;18.150;2023-11-21T02:05:27;99036.34;;;5.45;94.96
54592;BME280;40488;48.558;18.150;2023-11-21T02:07:58;99027.94;;;5.49;94.78
54592;BME280;40488;48.558;18.150;2023-11-21T02:10:28;99037.31;;;5.60;95.66
54592;BME280;40488;48.558;18.150;2023-11-21T02:12:58;99033.16;;;5.67;95.32
54592;BME280;40488;48.558;18.150;2023-11-21T02:15:32;99027.25;;;5.69;95.18
54592;BME280;40488;48.558;18.150;2023-11-21T02:18:01;98972.22;;;5.42;95.05
54592;BME280;40488;48.558;18.150;2023-11-21T02:20:30;99027.28;;;5.74;95.64
54592;BME280;40488;48.558;18.150;2023-11-21T02:23:05;99031.56;;;5.78;95.62
54592;BME280;40488;48.558;18.150;2023-11-21T02:25:34;99021.38;;;5.72;95.48
54592;BME280;40488;48.558;18.150;2023-11-21T02:28:05;99027.28;;;5.74;95.63
54592;BME280;40488;48.558;18.150;2023-11-21T02:30:35;99019.69;;;5.71;95.43
54592;BME280;40488;48.558;18.150;2023-11-21T02:33:04;99013.75;;;5.69;95.31
54592;BME280;40488;48.558;18.150;2023-11-21T02:35:34;98997.72;;;5.67;94.93
54592;BME280;40488;48.558;18.150;2023-11-21T02:38:06;98995.16;;;5.61;94.99
54592;BME280;40488;48.558;18.150;2023-11-21T02:40:35;98990.88;;;5.57;95.49
54592;BME280;40488;48.558;18.150;2023-11-21T02:43:05;98995.94;;;5.57;95.42
54592;BME280;40488;48.558;18.150;2023-11-21T02:45:34;98989.19;;;5.56;95.04
54592;BME280;40488;48.558;18.150;2023-11-21T02:48:04;98990.88;;;5.54;95.04
54592;BME280;40488;48.558;18.150;2023-11-21T02:50:33;98994.22;;;5.53;95.48
54592;BME280;40488;48.558;18.150;2023-11-21T02:53:03;98989.19;;;5.56;94.98
54592;BME280;40488;48.558;18.150;2023-11-21T02:55:34;98976.50;;;5.51;95.24
54592;BME280;40488;48.558;18.150;2023-11-21T02:58:03;98978.16;;;5.46;94.93
54592;BME280;40488;48.558;18.150;2023-11-21T03:00:34;98974.69;;;5.38;95.44
54592;BME280;40488;48.558;18.150;2023-11-21T03:03:02;98980.59;;;5.34;95.08
54592;BME280;40488;48.558;18.150;2023-11-21T03:05:31;98992.34;;;5.27;95.20
54592;BME280;40488;48.558;18.150;2023-11-21T03:08:03;98994.78;;;5.21;95.26
54592;BME280;40488;48.558;18.150;2023-11-21T03:10:34;98991.38;;;5.13;94.96
54592;BME280;40488;48.558;18.150;2023-11-21T03:13:03;98999.78;;;5.12;95.14
54592;BME280;40488;48.558;18.150;2023-11-21T03:15:32;98980.34;;;5.08;95.31
54592;BME280;40488;48.558;18.150;2023-11-21T03:18:03;98993.91;;;5.16;95.26
54592;BME280;40488;48.558;18.150;2023-11-21T03:20:32;98992.19;;;5.12;95.20
54592;BME280;40488;48.558;18.150;2023-11-21T03:23:02;98990.38;;;5.02;95.02
54592;BME280;40488;48.558;18.150;2023-11-21T03:25:31;98993.72;;;4.98;94.62
54592;BME280;40488;48.558;18.150;2023-11-21T03:28:01;98989.44;;;4.93;94.79
54592;BME280;40488;48.558;18.150;2023-11-21T03:30:30;98995.38;;;4.93;94.59
54592;BME280;40488;48.558;18.150;2023-11-21T03:32:59;98992.78;;;4.89;94.84
54592;BME280;40488;48.558;18.150;2023-11-21T03:35:29;98987.69;;;4.84;94.58
54592;BME280;40488;48.558;18.150;2023-11-21T03:37:58;98960.56;;;4.69;94.85
54592;BME280;40488;48.558;18.150;2023-11-21T03:40:29;98958.84;;;4.67;94.83
54592;BME280;40488;48.558;18.150;2023-11-21T03:42:58;98980.03;;;4.78;94.59
54592;BME280;40488;48.558;18.150;2023-11-21T03:45:28;98972.34;;;4.69;94.87
54592;BME280;40488;48.558;18.150;2023-11-21T03:47:58;98974.88;;;4.69;94.75
54592;BME280;40488;48.558;18.150;2023-11-21T03:50:29;98974.84;;;4.66;93.95
54592;BME280;40488;48.558;18.150;2023-11-21T03:52:59;98965.56;;;4.66;94.41
54592;BME280;40488;48.558;18.150;2023-11-21T03:55:29;98963.91;;;4.67;94.61
54592;BME280;40488;48.558;18.150;2023-11-21T04:02:25;98973.91;;;4.58;94.43
54592;BME280;40488;48.558;18.150;2023-11-21T04:04:56;98974.69;;;4.54;94.69
54592;BME280;40488;48.558;18.150;2023-11-21T04:07:25;98979.75;;;4.54;94.57
54592;BME280;40488;48.558;18.150;2023-11-21T04:09:54;98984.88;;;4.60;94.47
54592;BME280;40488;48.558;18.150;2023-11-21T04:12:23;98986.41;;;4.49;94.59
54592;BME280;40488;48.558;18.150;2023-11-21T04:14:52;98978.72;;;4.40;94.24
54592;BME280;40488;48.558;18.150;2023-11-21T04:17:22;98981.25;;;4.40;94.27
54592;BME280;40488;48.558;18.150;2023-11-21T04:19:53;98972.81;;;4.39;94.43
54592;BME280;40488;48.558;18.150;2023-11-21T04:22:22;98979.53;;;4.36;93.99
54592;BME280;40488;48.558;18.150;2023-11-21T04:24:51;98976.91;;;4.27;93.96
54592;BME280;40488;48.558;18.150;2023-11-21T04:27:20;98974.22;;;4.18;94.06
54592;BME280;40488;48.558;18.150;2023-11-21T04:29:49;98969.97;;;4.14;93.78
54592;BME280;40488;48.558;18.150;2023-11-21T04:32:18;98969.16;;;4.15;94.25
54592;BME280;40488;48.558;18.150;2023-11-21T04:34:46;98950.63;;;4.13;94.05
54592;BME280;40488;48.558;18.150;2023-11-21T04:37:17;98980.25;;;4.26;94.21
54592;BME280;40488;48.558;18.150;2023-11-21T04:39:46;98965.78;;;4.13;93.88
54592;BME280;40488;48.558;18.150;2023-11-21T04:42:15;98975.09;;;4.17;94.22
54592;BME280;40488;48.558;18.150;2023-11-21T04:44:44;98984.16;;;4.05;94.11
54592;BME280;40488;48.558;18.150;2023-11-21T04:47:13;98984.16;;;4.05;93.97
54592;BME280;40488;48.558;18.150;2023-11-21T04:49:42;98997.69;;;4.07;94.14
54592;BME280;40488;48.558;18.150;2023-11-21T04:52:11;99005.16;;;4.01;93.82
54592;BME280;40488;48.558;18.150;2023-11-21T04:54:42;99006.81;;;3.98;93.89
54592;BME280;40488;48.558;18.150;2023-11-21T04:57:11;99011.81;;;3.96;94.19
54592;BME280;40488;48.558;18.150;2023-11-21T04:59:39;99011.81;;;3.96;93.96
54592;BME280;40488;48.558;18.150;2023-11-21T05:02:08;99009.28;;;3.93;94.04
54592;BME280;40488;48.558;18.150;2023-11-21T05:04:54;99011.00;;;3.97;93.72
54592;BME280;40488;48.558;18.150;2023-11-21T05:07:23;99024.22;;;3.81;93.72
54592;BME280;40488;48.558;18.150;2023-11-21T05:10:00;99029.09;;;3.72;93.91
54592;BME280;40488;48.558;18.150;2023-11-21T05:12:31;99044.97;;;3.64;93.87
54592;BME280;40488;48.558;18.150;2023-11-21T05:15:04;99034.00;;;3.63;94.00
54592;BME280;40488;48.558;18.150;2023-11-21T05:17:37;99037.38;;;3.62;93.82
54592;BME280;40488;48.558;18.150;2023-11-21T05:20:10;99036.38;;;3.53;93.86
54592;BME280;40488;48.558;18.150;2023-11-21T05:22:41;99011.69;;;3.35;93.41
54592;BME280;40488;48.558;18.150;2023-11-21T05:25:12;99032.84;;;3.43;93.24
54592;BME280;40488;48.558;18.150;2023-11-21T05:27:41;99047.16;;;3.44;93.63
54592;BME280;40488;48.558;18.150;2023-11-21T05:30:10;99036.19;;;3.41;93.26
54592;BME280;40488;48.558;18.150;2023-11-21T05:32:40;99050.50;;;3.43;93.62
54592;BME280;40488;48.558;18.150;2023-11-21T05:35:10;99050.53;;;3.46;93.29
54592;BME280;40488;48.558;18.150;2023-11-21T05:37:45;99052.25;;;3.47;92.98
54592;BME280;40488;48.558;18.150;2023-11-21T05:40:16;99054.00;;;3.51;93.18
54592;BME280;40488;48.558;18.150;2023-11-21T05:42:46;99052.19;;;3.44;93.56
54592;BME280;40488;48.558;18.150;2023-11-21T05:49:46;99045.25;;;3.31;92.99
54592;BME280;40488;48.558;18.150;2023-11-21T05:55:41;99039.78;;;3.10;92.77
54592;BME280;40488;48.558;18.150;2023-11-21T05:58:10;99049.94;;;3.13;93.07
54592;BME280;40488;48.558;18.150;2023-11-21T06:00:41;99055.16;;;3.22;92.97
54592;BME280;40488;48.558;18.150;2023-11-21T06:03:10;99051.97;;;3.32;92.77
54592;BME280;40488;48.558;18.150;2023-11-21T06:05:40;99050.22;;;3.28;93.22
54592;BME280;40488;48.558;18.150;2023-11-21T06:08:08;99056.09;;;3.27;93.27
54592;BME280;40488;48.558;18.150;2023-11-21T06:10:38;99055.16;;;3.22;92.65
54592;BME280;40488;48.558;18.150;2023-11-21T06:13:08;99051.81;;;3.21;93.06
54592;BME280;40488;48.558;18.150;2023-11-21T06:15:50;99010.19;;;2.98;92.72
54592;BME280;40488;48.558;18.150;2023-11-21T06:18:19;99061.97;;;3.26;93.05
54592;BME280;40488;48.558;18.150;2023-11-21T06:20:48;99068.63;;;3.24;93.11
54592;BME280;40488;48.558;18.150;2023-11-21T06:23:29;99063.56;;;3.21;92.64
54592;BME280;40488;48.558;18.150;2023-11-21T06:26:24;99073.66;;;3.24;93.21
54592;BME280;40488;48.558;18.150;2023-11-21T06:28:55;99078.78;;;3.27;92.70
54592;BME280;40488;48.558;18.150;2023-11-21T06:31:24;99079.63;;;3.26;92.72
54592;BME280;40488;48.558;18.150;2023-11-21T06:33:58;99077.91;;;3.25;93.00
54592;BME280;40488;48.558;18.150;2023-11-21T06:36:27;99029.50;;;2.98;93.24
54592;BME280;40488;48.558;18.150;2023-11-21T06:38:56;99082.16;;;3.29;92.99
54592;BME280;40488;48.558;18.150;2023-11-21T06:41:25;99105.06;;;3.39;93.48
54592;BME280;40488;48.558;18.150;2023-11-21T06:44:25;99112.78;;;3.49;93.42
54592;BME280;40488;48.558;18.150;2023-11-21T06:47:28;99113.50;;;3.42;93.32
54592;BME280;40488;48.558;18.150;2023-11-21T06:49:58;99120.28;;;3.44;93.51
54592;BME280;40488;48.558;18.150;2023-11-21T06:52:28;99114.44;;;3.47;93.42
54592;BME280;40488;48.558;18.150;2023-11-21T06:54:56;99126.53;;;3.64;93.85
54592;BME280;40488;48.558;18.150;2023-11-21T06:57:28;99119.13;;;3.72;94.04
54592;BME280;40488;48.558;18.150;2023-11-21T06:59:59;99127.56;;;3.75;93.41
54592;BME280;40488;48.558;18.150;2023-11-21T07:02:28;99132.78;;;3.84;93.83
54592;BME280;40488;48.558;18.150;2023-11-21T07:04:57;99122.72;;;3.87;94.15
54592;BME280;40488;48.558;18.150;2023-11-21T07:07:27;99101.31;;;3.64;93.80
54592;BME280;40488;48.558;18.150;2023-11-21T07:09:55;99148.69;;;3.80;93.69
54592;BME280;40488;48.558;18.150;2023-11-21T07:12:24;99149.56;;;3.82;93.68
54592;BME280;40488;48.558;18.150;2023-11-21T07:14:53;99135.25;;;3.81;94.17
54592;BME280;40488;48.558;18.150;2023-11-21T07:17:23;99151.38;;;3.89;93.89
54592;BME280;40488;48.558;18.150;2023-11-21T07:19:52;99148.97;;;3.95;94.33
54592;BME280;40488;48.558;18.150;2023-11-21T07:22:22;99136.34;;;3.95;94.15
54592;BME280;40488;48.558;18.150;2023-11-21T07:24:52;99149.09;;;4.04;94.49
54592;BME280;40488;48.558;18.150;2023-11-21T07:27:21;99137.41;;;4.10;94.82
54592;BME280;40488;48.558;18.150;2023-11-21T07:29:50;99135.75;;;4.12;94.77
54592;BME280;40488;48.558;18.150;2023-11-21T07:32:19;99133.31;;;4.18;94.73
54592;BME280;40488;48.558;18.150;2023-11-21T07:34:49;99140.88;;;4.18;95.00
54592;BME280;40488;48.558;18.150;2023-11-21T07:37:18;99135.91;;;4.21;94.96
54592;BME280;40488;48.558;18.150;2023-11-21T07:39:47;99141.06;;;4.30;95.35
54592;BME280;40488;48.558;18.150;2023-11-21T07:42:16;99125.25;;;4.40;94.91
54592;BME280;40488;48.558;18.150;2023-11-21T07:44:46;99139.69;;;4.48;95.33
54592;BME280;40488;48.558;18.150;2023-11-21T07:47:15;99105.22;;;4.52;95.37
54592;BME280;40488;48.558;18.150;2023-11-21T07:49:43;99125.84;;;4.84;95.01
54592;BME280;40488;48.558;18.150;2023-11-21T07:52:16;99130.16;;;4.89;95.31
54592;BME280;40488;48.558;18.150;2023-11-21T07:54:44;99132.75;;;4.97;95.13
54592;BME280;40488;48.558;18.150;2023-11-21T07:57:13;99138.00;;;5.10;95.67
54592;BME280;40488;48.558;18.150;2023-11-21T07:59:42;99132.28;;;5.26;95.44
54592;BME280;40488;48.558;18.150;2023-11-21T08:02:11;99140.91;;;5.43;95.47
54592;BME280;40488;48.558;18.150;2023-11-21T08:04:39;99145.25;;;5.55;95.35
54592;BME280;40488;48.558;18.150;2023-11-21T08:07:08;99147.00;;;5.62;95.67
54592;BME280;40488;48.558;18.150;2023-11-21T08:09:39;99146.28;;;5.71;96.03
54592;BME280;40488;48.558;18.150;2023-11-21T08:12:08;99146.34;;;5.80;95.75
54592;BME280;40488;48.558;18.150;2023-11-21T08:14:38;99154.06;;;5.87;95.97
54592;BME280;40488;48.558;18.150;2023-11-21T08:17:07;99148.22;;;5.97;95.44
54592;BME280;40488;48.558;18.150;2023-11-21T08:19:37;99131.38;;;6.01;95.39
54592;BME280;40488;48.558;18.150;2023-11-21T08:22:06;99156.00;;;6.16;95.28
54592;BME280;40488;48.558;18.150;2023-11-21T08:24:36;99151.81;;;6.22;96.00
54592;BME280;40488;48.558;18.150;2023-11-21T08:27:06;99141.72;;;6.25;95.82
54592;BME280;40488;48.558;18.150;2023-11-21T08:29:35;99137.53;;;6.32;95.29
54592;BME280;40488;48.558;18.150;2023-11-21T08:32:05;99134.19;;;6.37;96.33
54592;BME280;40488;48.558;18.150;2023-11-21T08:34:34;99121.53;;;6.37;95.24
54592;BME280;40488;48.558;18.150;2023-11-21T08:37:03;99128.38;;;6.47;95.96
54592;BME280;40488;48.558;18.150;2023-11-21T08:39:33;99092.75;;;6.29;96.16
54592;BME280;40488;48.558;18.150;2023-11-21T08:42:02;99137.66;;;6.53;96.06
54592;BME280;40488;48.558;18.150;2023-11-21T08:44:32;99128.41;;;6.56;95.90
54592;BME280;40488;48.558;18.150;2023-11-21T08:47:01;99080.00;;;6.22;95.87
54592;BME280;40488;48.558;18.150;2023-11-21T08:49:34;99141.06;;;6.52;95.29
54592;BME280;40488;48.558;18.150;2023-11-21T08:52:03;99146.97;;;6.55;95.88
54592;BME280;40488;48.558;18.150;2023-11-21T08:54:34;99144.47;;;6.57;95.23
54592;BME280;40488;48.558;18.150;2023-11-21T08:57:03;99159.75;;;6.66;95.51
54592;BME280;40488;48.558;18.150;2023-11-21T08:59:34;99164.00;;;6.71;96.00
54592;BME280;40488;48.558;18.150;2023-11-21T09:02:02;99158.97;;;6.78;95.76
54592;BME280;40488;48.558;18.150;2023-11-21T09:04:31;99148.81;;;6.78;95.96
54592;BME280;40488;48.558;18.150;2023-11-21T09:07:00;99163.28;;;6.91;95.64
54592;BME280;40488;48.558;18.150;2023-11-21T09:09:29;99161.63;;;7.02;95.64
54592;BME280;40488;48.558;18.150;2023-11-21T09:11:58;99167.59;;;7.13;95.96
54592;BME280;40488;48.558;18.150;2023-11-21T09:14:29;99149.03;;;7.23;95.54
54592;BME280;40488;48.558;18.150;2023-11-21T09:16:59;99157.53;;;7.37;95.91
54592;BME280;40488;48.558;18.150;2023-11-21T09:19:28;99154.22;;;7.59;95.47
54592;BME280;40488;48.558;18.150;2023-11-21T09:21:57;99147.47;;;7.70;95.85
54592;BME280;40488;48.558;18.150;2023-11-21T09:24:27;99150.91;;;7.77;95.55
54592;BME280;40488;48.558;18.150;2023-11-21T09:26:55;99141.59;;;7.82;95.24
54592;BME280;40488;48.558;18.150;2023-11-21T09:29:24;99145.81;;;7.78;95.46
54592;BME280;40488;48.558;18.150;2023-11-21T09:31:53;99139.91;;;7.79;95.55
54592;BME280;40488;48.558;18.150;2023-11-21T09:34:24;99133.09;;;7.83;95.41
54592;BME280;40488;48.558;18.150;2023-11-21T09:36:53;99132.28;;;7.88;94.83
54592;BME280;40488;48.558;18.150;2023-11-21T09:39:22;99127.22;;;7.99;95.23
54592;BME280;40488;48.558;18.150;2023-11-21T09:41:57;99128.06;;;8.19;94.42
54592;BME280;40488;48.558;18.150;2023-11-21T09:44:34;99127.22;;;8.40;94.20
54592;BME280;40488;48.558;18.150;2023-11-21T09:47:04;99111.94;;;8.55;93.66
54592;BME280;40488;48.558;18.150;2023-11-21T09:49:40;99111.03;;;8.71;93.76
54592;BME280;40488;48.558;18.150;2023-11-21T09:52:09;99111.88;;;8.79;93.42
54592;BME280;40488;48.558;18.150;2023-11-21T09:54:45;99109.34;;;8.85;92.58
54592;BME280;40488;48.558;18.150;2023-11-21T09:57:15;99105.06;;;8.92;92.31
54592;BME280;40488;48.558;18.150;2023-11-21T09:59:47;99113.47;;;9.07;91.86
54592;BME280;40488;48.558;18.150;2023-11-21T10:02:17;99109.25;;;9.06;90.74
54592;BME280;40488;48.558;18.150;2023-11-21T10:04:49;99110.94;;;9.07;90.52
54592;BME280;40488;48.558;18.150;2023-11-21T10:07:19;99117.72;;;9.13;89.62
54592;BME280;40488;48.558;18.150;2023-11-21T10:09:51;99086.34;;;9.09;89.50
54592;BME280;40488;48.558;18.150;2023-11-21T10:12:22;99120.16;;;9.32;88.63
54592;BME280;40488;48.558;18.150;2023-11-21T10:14:54;99113.34;;;9.40;88.50
54592;BME280;40488;48.558;18.150;2023-11-21T10:17:28;99109.88;;;9.54;87.35
54592;BME280;40488;48.558;18.150;2023-11-21T10:20:12;99101.31;;;9.64;86.58
54592;BME280;40488;48.558;18.150;2023-11-21T10:22:42;99075.88;;;9.58;85.93
54592;BME280;40488;48.558;18.150;2023-11-21T10:25:12;99096.97;;;9.78;85.65
54592;BME280;40488;48.558;18.150;2023-11-21T10:27:42;99103.09;;;9.50;84.86
54592;BME280;40488;48.558;18.150;2023-11-21T10:30:11;99101.47;;;9.36;84.51
54592;BME280;40488;48.558;18.150;2023-11-21T10:32:40;99101.47;;;9.33;85.26
54592;BME280;40488;48.558;18.150;2023-11-21T10:38:43;99097.28;;;9.28;84.56
54592;BME280;40488;48.558;18.150;2023-11-21T10:41:18;99100.66;;;9.30;84.84
54592;BME280;40488;48.558;18.150;2023-11-21T10:43:47;99103.22;;;9.25;85.47
54592;BME280;40488;48.558;18.150;2023-11-21T10:46:17;99099.84;;;9.20;84.99
54592;BME280;40488;48.558;18.150;2023-11-21T10:48:46;99100.69;;;9.19;85.22
54592;BME280;40488;48.558;18.150;2023-11-21T10:51:14;99101.56;;;9.18;85.34
54592;BME280;40488;48.558;18.150;2023-11-21T10:53:48;99078.72;;;9.09;85.59
54592;BME280;40488;48.558;18.150;2023-11-21T10:56:18;99098.13;;;9.25;85.52
54592;BME280;40488;48.558;18.150;2023-11-21T10:58:49;99101.47;;;9.33;85.07
54592;BME280;40488;48.558;18.150;2023-11-21T11:01:19;99098.06;;;9.37;85.19
54592;BME280;40488;48.558;18.150;2023-11-21T11:03:52;99091.28;;;9.33;84.69
54592;BME280;40488;48.558;18.150;2023-11-21T11:06:24;99090.44;;;9.36;84.92
54592;BME280;40488;48.558;18.150;2023-11-21T11:08:56;99092.88;;;9.53;85.01
54592;BME280;40488;48.558;18.150;2023-11-21T11:11:25;99091.03;;;9.76;84.56
54592;BME280;40488;48.558;18.150;2023-11-21T11:13:55;99094.31;;;9.93;83.70
54592;BME280;40488;48.558;18.150;2023-11-21T11:16:27;99064.63;;;9.84;83.59
54592;BME280;40488;48.558;18.150;2023-11-21T11:18:56;99088.25;;;10.07;83.17
54592;BME280;40488;48.558;18.150;2023-11-21T11:21:33;99021.31;;;9.86;82.45
54592;BME280;40488;48.558;18.150;2023-11-21T11:24:29;99073.63;;;10.28;82.33
54592;BME280;40488;48.558;18.150;2023-11-21T11:27:09;99067.59;;;10.38;82.38
54592;BME280;40488;48.558;18.150;2023-11-21T11:29:46;99066.66;;;10.46;82.15
54592;BME280;40488;48.558;18.150;2023-11-21T11:32:23;99056.50;;;10.43;81.83
54592;BME280;40488;48.558;18.150;2023-11-21T11:35:05;99046.22;;;10.49;81.73
54592;BME280;40488;48.558;18.150;2023-11-21T11:37:36;99058.00;;;10.62;81.63
54592;BME280;40488;48.558;18.150;2023-11-21T11:40:08;99056.25;;;10.64;81.01
54592;BME280;40488;48.558;18.150;2023-11-21T11:42:39;99044.19;;;10.78;81.31
54592;BME280;40488;48.558;18.150;2023-11-21T11:45:18;99038.25;;;10.75;81.00
54592;BME280;40488;48.558;18.150;2023-11-21T11:47:48;99006.84;;;10.71;81.24
54592;BME280;40488;48.558;18.150;2023-11-21T11:50:17;99028.72;;;10.91;80.61
54592;BME280;40488;48.558;18.150;2023-11-21T11:52:48;99044.63;;;11.09;80.35
54592;BME280;40488;48.558;18.150;2023-11-21T11:55:20;99049.03;;;11.00;80.19
54592;BME280;40488;48.558;18.150;2023-11-21T11:57:51;99047.34;;;10.99;79.79
54592;BME280;40488;48.558;18.150;2023-11-21T12:00:34;99049.78;;;11.06;79.70
54592;BME280;40488;48.558;18.150;2023-11-21T12:03:06;99043.56;;;11.27;79.49
54592;BME280;40488;48.558;18.150;2023-11-21T12:05:36;99047.19;;;11.72;79.25
54592;BME280;40488;48.558;18.150;2023-11-21T12:08:07;99045.44;;;11.74;78.03
54592;BME280;40488;48.558;18.150;2023-11-21T12:10:39;99048.41;;;12.00;77.66
54592;BME280;40488;48.558;18.150;2023-11-21T12:13:09;99032.19;;;12.02;77.13
54592;BME280;40488;48.558;18.150;2023-11-21T12:15:40;99039.19;;;12.39;76.15
54592;BME280;40488;48.558;18.150;2023-11-21T12:18:09;99039.63;;;12.62;75.61
54592;BME280;40488;48.558;18.150;2023-11-21T12:20:39;99044.88;;;12.97;75.06
54592;BME280;40488;48.558;18.150;2023-11-21T12:23:08;99035.66;;;13.30;73.54
54592;BME280;40488;48.558;18.150;2023-11-21T12:25:40;99027.38;;;13.56;71.75
54592;BME280;40488;48.558;18.150;2023-11-21T12:28:10;99030.53;;;13.31;70.85
54592;BME280;40488;48.558;18.150;2023-11-21T12:30:39;99037.06;;;13.03;71.05
54592;BME280;40488;48.558;18.150;2023-11-21T12:33:08;99035.84;;;12.79;71.33
54592;BME280;40488;48.558;18.150;2023-11-21T12:35:39;99036.00;;;12.26;71.67
54592;BME280;40488;48.558;18.150;2023-11-21T12:38:08;99030.09;;;11.75;72.68
54592;BME280;40488;48.558;18.150;2023-11-21T12:40:37;99034.66;;;11.54;73.62
54592;BME280;40488;48.558;18.150;2023-11-21T12:43:08;99036.50;;;11.44;74.18
54592;BME280;40488;48.558;18.150;2023-11-21T12:45:37;99041.69;;;11.38;74.97
54592;BME280;40488;48.558;18.150;2023-11-21T12:48:06;99045.19;;;11.31;75.87
54592;BME280;40488;48.558;18.150;2023-11-21T12:50:39;99035.16;;;11.19;76.22
54592;BME280;40488;48.558;18.150;2023-11-21T12:53:08;99039.59;;;11.05;76.95
54592;BME280;40488;48.558;18.150;2023-11-21T12:55:40;99040.66;;;10.89;77.93
54592;BME280;40488;48.558;18.150;2023-11-21T12:58:11;99033.25;;;10.69;78.55
54592;BME280;40488;48.558;18.150;2023-11-21T13:00:42;99039.31;;;10.60;79.34
54592;BME280;40488;48.558;18.150;2023-11-21T13:03:13;99038.53;;;10.52;79.91
54592;BME280;40488;48.558;18.150;2023-11-21T13:05:48;99034.34;;;10.45;80.21
54592;BME280;40488;48.558;18.150;2023-11-21T13:08:21;99044.56;;;10.44;80.80
54592;BME280;40488;48.558;18.150;2023-11-21T13:10:53;99038.69;;;10.39;80.88
54592;BME280;40488;48.558;18.150;2023-11-21T13:13:28;99052.25;;;10.39;81.27
54592;BME280;40488;48.558;18.150;2023-11-21T13:16:00;99042.91;;;10.41;81.79
54592;BME280;40488;48.558;18.150;2023-11-21T13:18:32;99053.13;;;10.41;82.20
54592;BME280;40488;48.558;18.150;2023-11-21T13:21:02;99050.56;;;10.40;81.94
54592;BME280;40488;48.558;18.150;2023-11-21T13:23:37;99053.97;;;10.40;82.59
54592;BME280;40488;48.558;18.150;2023-11-21T13:26:06;99055.69;;;10.38;82.52
54592;BME280;40488;48.558;18.150;2023-11-21T13:28:37;99056.53;;;10.37;82.89
54592;BME280;40488;48.558;18.150;2023-11-21T13:31:09;99051.44;;;10.37;82.88